sensor_id;sensor_type;location;lat;lon;timestamp;P1;durP1;ratioP1;P2;durP2;ratioP2
56999;SDS011;42891;50.006;21.964;2024-02-28T00:03:52;29.05;;;18.15;;
56999;SDS011;42891;50.006;21.964;2024-02-28T00:07:53;36.17;;;17.70;;
56999;SDS011;42891;50.006;21.964;2024-02-28T00:11:53;36.50;;;19.08;;
56999;SDS011;42891;50.006;21.964;2024-02-28T00:15:53;30.37;;;17.17;;
56999;SDS011;42891;50.006;21.964;2024-02-28T00:19:53;34.40;;;17.88;;
56999;SDS011;42891;50.006;21.964;2024-02-28T00:23:54;33.03;;;16.27;;
56999;SDS011;42891;50.006;21.964;2024-02-28T00:27:54;29.97;;;17.83;;
56999;SDS011;42891;50.006;21.964;2024-02-28T00:31:54;30.58;;;17.55;;
56999;SDS011;42891;50.006;21.964;2024-02-28T00:35:55;27.97;;;16.07;;
56999;SDS011;42891;50.006;21.964;2024-02-28T00:39:55;28.93;;;16.67;;
56999;SDS011;42891;50.006;21.964;2024-02-28T00:43:55;28.48;;;16.35;;
56999;SDS011;42891;50.006;21.964;2024-02-28T00:47:56;32.80;;;17.27;;
56999;SDS011;42891;50.006;21.964;2024-02-28T00:51:56;24.83;;;16.10;;
56999;SDS011;42891;50.006;21.964;2024-02-28T00:55:56;31.10;;;16.23;;
56999;SDS011;42891;50.006;21.964;2024-02-28T00:59:56;31.67;;;17.98;;
56999;SDS011;42891;50.006;21.964;2024-02-28T01:03:57;32.60;;;17.40;;
56999;SDS011;42891;50.006;21.964;2024-02-28T01:07:57;30.15;;;18.13;;
56999;SDS011;42891;50.006;21.964;2024-02-28T01:11:57;30.10;;;17.00;;
56999;SDS011;42891;50.006;21.964;2024-02-28T01:15:58;26.35;;;15.82;;
56999;SDS011;42891;50.006;21.964;2024-02-28T01:19:59;27.02;;;16.23;;
56999;SDS011;42891;50.006;21.964;2024-02-28T01:24:00;26.83;;;16.00;;
56999;SDS011;42891;50.006;21.964;2024-02-28T01:28:00;30.57;;;16.13;;
56999;SDS011;42891;50.006;21.964;2024-02-28T01:32:00;30.20;;;16.17;;
56999;SDS011;42891;50.006;21.964;2024-02-28T01:36:01;29.87;;;16.37;;
56999;SDS011;42891;50.006;21.964;2024-02-28T01:40:01;31.08;;;16.50;;
56999;SDS011;42891;50.006;21.964;2024-02-28T01:44:04;27.50;;;16.20;;
56999;SDS011;42891;50.006;21.964;2024-02-28T01:48:06;30.83;;;14.70;;
56999;SDS011;42891;50.006;21.964;2024-02-28T01:52:09;29.17;;;15.10;;
56999;SDS011;42891;50.006;21.964;2024-02-28T01:56:11;29.83;;;15.40;;
56999;SDS011;42891;50.006;21.964;2024-02-28T02:00:14;25.35;;;15.13;;
56999;SDS011;42891;50.006;21.964;2024-02-28T02:04:16;25.80;;;15.20;;
56999;SDS011;42891;50.006;21.964;2024-02-28T02:08:17;28.63;;;16.47;;
56999;SDS011;42891;50.006;21.964;2024-02-28T02:12:17;28.50;;;15.40;;
56999;SDS011;42891;50.006;21.964;2024-02-28T02:16:18;33.65;;;16.27;;
56999;SDS011;42891;50.006;21.964;2024-02-28T02:20:19;34.05;;;15.10;;
56999;SDS011;42891;50.006;21.964;2024-02-28T02:24:21;27.65;;;14.80;;
56999;SDS011;42891;50.006;21.964;2024-02-28T02:28:21;35.33;;;16.33;;
56999;SDS011;42891;50.006;21.964;2024-02-28T02:32:22;31.80;;;16.35;;
56999;SDS011;42891;50.006;21.964;2024-02-28T02:36:22;32.28;;;15.95;;
56999;SDS011;42891;50.006;21.964;2024-02-28T02:40:22;34.63;;;16.60;;
56999;SDS011;42891;50.006;21.964;2024-02-28T02:44:23;27.40;;;14.30;;
56999;SDS011;42891;50.006;21.964;2024-02-28T02:48:24;28.92;;;14.57;;
56999;SDS011;42891;50.006;21.964;2024-02-28T02:52:25;25.58;;;15.32;;
56999;SDS011;42891;50.006;21.964;2024-02-28T02:56:25;27.17;;;15.13;;
56999;SDS011;42891;50.006;21.964;2024-02-28T03:00:25;29.67;;;17.33;;
56999;SDS011;42891;50.006;21.964;2024-02-28T03:04:25;31.90;;;16.83;;
56999;SDS011;42891;50.006;21.964;2024-02-28T03:08:26;27.60;;;15.95;;
56999;SDS011;42891;50.006;21.964;2024-02-28T03:12:26;28.70;;;17.33;;
56999;SDS011;42891;50.006;21.964;2024-02-28T03:16:26;33.58;;;17.88;;
56999;SDS011;42891;50.006;21.964;2024-02-28T03:20:27;26.23;;;16.47;;
56999;SDS011;42891;50.006;21.964;2024-02-28T03:24:27;31.50;;;17.40;;
56999;SDS011;42891;50.006;21.964;2024-02-28T03:28:27;31.30;;;16.80;;
56999;SDS011;42891;50.006;21.964;2024-02-28T03:32:27;29.47;;;18.13;;
56999;SDS011;42891;50.006;21.964;2024-02-28T03:36:28;27.77;;;17.37;;
56999;SDS011;42891;50.006;21.964;2024-02-28T03:40:29;26.63;;;16.75;;
56999;SDS011;42891;50.006;21.964;2024-02-28T03:44:29;26.43;;;16.33;;
56999;SDS011;42891;50.006;21.964;2024-02-28T03:48:29;32.53;;;17.70;;
56999;SDS011;42891;50.006;21.964;2024-02-28T03:52:30;26.17;;;16.13;;
56999;SDS011;42891;50.006;21.964;2024-02-28T03:56:30;25.17;;;15.38;;
56999;SDS011;42891;50.006;21.964;2024-02-28T04:00:31;28.23;;;16.07;;
56999;SDS011;42891;50.006;21.964;2024-02-28T04:04:31;31.10;;;19.33;;
56999;SDS011;42891;50.006;21.964;2024-02-28T04:08:31;28.98;;;17.60;;
56999;SDS011;42891;50.006;21.964;2024-02-28T04:12:32;29.80;;;18.90;;
56999;SDS011;42891;50.006;21.964;2024-02-28T04:16:33;30.08;;;17.65;;
56999;SDS011;42891;50.006;21.964;2024-02-28T04:20:33;32.77;;;18.93;;
56999;SDS011;42891;50.006;21.964;2024-02-28T04:24:34;35.10;;;18.60;;
56999;SDS011;42891;50.006;21.964;2024-02-28T04:28:34;29.67;;;18.05;;
56999;SDS011;42891;50.006;21.964;2024-02-28T04:32:35;30.77;;;17.73;;
56999;SDS011;42891;50.006;21.964;2024-02-28T04:36:36;34.97;;;17.63;;
56999;SDS011;42891;50.006;21.964;2024-02-28T04:40:36;30.10;;;16.50;;
56999;SDS011;42891;50.006;21.964;2024-02-28T04:44:36;30.58;;;17.17;;
56999;SDS011;42891;50.006;21.964;2024-02-28T04:48:37;25.10;;;16.73;;
56999;SDS011;42891;50.006;21.964;2024-02-28T04:52:37;29.98;;;18.25;;
56999;SDS011;42891;50.006;21.964;2024-02-28T04:56:41;31.50;;;17.80;;
56999;SDS011;42891;50.006;21.964;2024-02-28T05:00:41;30.52;;;16.20;;
56999;SDS011;42891;50.006;21.964;2024-02-28T05:04:41;27.67;;;16.50;;
56999;SDS011;42891;50.006;21.964;2024-02-28T05:08:41;28.50;;;15.23;;
56999;SDS011;42891;50.006;21.964;2024-02-28T05:12:42;25.83;;;14.07;;
56999;SDS011;42891;50.006;21.964;2024-02-28T05:16:42;24.48;;;13.93;;
56999;SDS011;42891;50.006;21.964;2024-02-28T05:20:43;24.30;;;13.83;;
56999;SDS011;42891;50.006;21.964;2024-02-28T05:24:45;20.35;;;13.38;;
56999;SDS011;42891;50.006;21.964;2024-02-28T05:28:46;23.98;;;13.10;;
56999;SDS011;42891;50.006;21.964;2024-02-28T05:32:46;28.27;;;13.68;;
56999;SDS011;42891;50.006;21.964;2024-02-28T05:36:46;23.20;;;13.73;;
56999;SDS011;42891;50.006;21.964;2024-02-28T05:40:47;24.08;;;13.60;;
56999;SDS011;42891;50.006;21.964;2024-02-28T05:44:47;24.23;;;13.90;;
56999;SDS011;42891;50.006;21.964;2024-02-28T05:48:48;22.30;;;12.30;;
56999;SDS011;42891;50.006;21.964;2024-02-28T05:52:49;30.27;;;15.07;;
56999;SDS011;42891;50.006;21.964;2024-02-28T05:56:49;30.07;;;16.13;;
56999;SDS011;42891;50.006;21.964;2024-02-28T06:00:49;26.20;;;14.83;;
56999;SDS011;42891;50.006;21.964;2024-02-28T06:04:49;25.20;;;15.03;;
56999;SDS011;42891;50.006;21.964;2024-02-28T06:08:50;23.63;;;14.10;;
56999;SDS011;42891;50.006;21.964;2024-02-28T06:12:50;24.33;;;14.50;;
56999;SDS011;42891;50.006;21.964;2024-02-28T06:16:50;25.20;;;14.55;;
56999;SDS011;42891;50.006;21.964;2024-02-28T06:20:50;23.93;;;14.13;;
56999;SDS011;42891;50.006;21.964;2024-02-28T06:24:51;21.47;;;12.93;;
56999;SDS011;42891;50.006;21.964;2024-02-28T06:28:51;19.97;;;11.37;;
56999;SDS011;42891;50.006;21.964;2024-02-28T06:32:53;17.55;;;11.25;;
56999;SDS011;42891;50.006;21.964;2024-02-28T06:36:53;21.13;;;10.80;;
56999;SDS011;42891;50.006;21.964;2024-02-28T06:40:53;18.90;;;10.63;;
56999;SDS011;42891;50.006;21.964;2024-02-28T06:44:53;17.37;;;12.07;;
56999;SDS011;42891;50.006;21.964;2024-02-28T06:48:54;22.13;;;12.33;;
56999;SDS011;42891;50.006;21.964;2024-02-28T06:52:55;25.73;;;15.25;;
56999;SDS011;42891;50.006;21.964;2024-02-28T06:56:55;20.27;;;12.10;;
56999;SDS011;42891;50.006;21.964;2024-02-28T07:00:55;20.83;;;12.30;;
56999;SDS011;42891;50.006;21.964;2024-02-28T07:04:56;20.17;;;11.17;;
56999;SDS011;42891;50.006;21.964;2024-02-28T07:08:56;21.27;;;11.50;;
56999;SDS011;42891;50.006;21.964;2024-02-28T07:12:56;19.95;;;11.40;;
56999;SDS011;42891;50.006;21.964;2024-02-28T07:16:57;17.75;;;11.20;;
56999;SDS011;42891;50.006;21.964;2024-02-28T07:20:57;21.37;;;12.17;;
56999;SDS011;42891;50.006;21.964;2024-02-28T07:24:58;18.98;;;11.38;;
56999;SDS011;42891;50.006;21.964;2024-02-28T07:28:58;22.60;;;11.17;;
56999;SDS011;42891;50.006;21.964;2024-02-28T07:32:58;19.53;;;12.43;;
56999;SDS011;42891;50.006;21.964;2024-02-28T07:36:59;18.55;;;11.13;;
56999;SDS011;42891;50.006;21.964;2024-02-28T07:40:59;27.52;;;11.90;;
56999;SDS011;42891;50.006;21.964;2024-02-28T07:45:00;19.53;;;11.50;;
56999;SDS011;42891;50.006;21.964;2024-02-28T07:49:00;25.10;;;12.80;;
56999;SDS011;42891;50.006;21.964;2024-02-28T07:53:01;26.10;;;12.35;;
56999;SDS011;42891;50.006;21.964;2024-02-28T07:57:02;27.02;;;11.73;;
56999;SDS011;42891;50.006;21.964;2024-02-28T08:01:02;22.85;;;12.13;;
56999;SDS011;42891;50.006;21.964;2024-02-28T08:05:03;23.85;;;12.10;;
56999;SDS011;42891;50.006;21.964;2024-02-28T08:09:04;21.92;;;12.05;;
56999;SDS011;42891;50.006;21.964;2024-02-28T08:13:04;24.07;;;12.93;;
56999;SDS011;42891;50.006;21.964;2024-02-28T08:17:05;19.95;;;10.80;;
56999;SDS011;42891;50.006;21.964;2024-02-28T08:21:05;19.77;;;11.50;;
56999;SDS011;42891;50.006;21.964;2024-02-28T08:25:05;22.42;;;13.02;;
56999;SDS011;42891;50.006;21.964;2024-02-28T08:29:06;21.50;;;13.05;;
56999;SDS011;42891;50.006;21.964;2024-02-28T08:33:06;23.93;;;13.87;;
56999;SDS011;42891;50.006;21.964;2024-02-28T08:37:08;23.48;;;14.13;;
56999;SDS011;42891;50.006;21.964;2024-02-28T08:41:09;24.73;;;12.90;;
56999;SDS011;42891;50.006;21.964;2024-02-28T08:45:09;20.25;;;11.07;;
56999;SDS011;42891;50.006;21.964;2024-02-28T08:49:10;24.90;;;10.48;;
56999;SDS011;42891;50.006;21.964;2024-02-28T08:53:10;18.73;;;10.35;;
56999;SDS011;42891;50.006;21.964;2024-02-28T08:57:10;16.90;;;8.77;;
56999;SDS011;42891;50.006;21.964;2024-02-28T09:01:14;17.08;;;9.23;;
56999;SDS011;42891;50.006;21.964;2024-02-28T09:05:15;14.10;;;8.48;;
56999;SDS011;42891;50.006;21.964;2024-02-28T09:09:16;13.90;;;8.20;;
56999;SDS011;42891;50.006;21.964;2024-02-28T09:13:16;15.70;;;8.75;;
56999;SDS011;42891;50.006;21.964;2024-02-28T09:17:18;14.63;;;8.13;;
56999;SDS011;42891;50.006;21.964;2024-02-28T09:21:18;13.95;;;8.32;;
56999;SDS011;42891;50.006;21.964;2024-02-28T09:25:18;12.97;;;8.10;;
56999;SDS011;42891;50.006;21.964;2024-02-28T09:29:21;18.58;;;8.63;;
56999;SDS011;42891;50.006;21.964;2024-02-28T09:33:21;14.37;;;8.17;;
56999;SDS011;42891;50.006;21.964;2024-02-28T09:37:21;17.53;;;8.37;;
56999;SDS011;42891;50.006;21.964;2024-02-28T09:41:22;13.57;;;8.30;;
56999;SDS011;42891;50.006;21.964;2024-02-28T09:45:26;14.48;;;8.57;;
56999;SDS011;42891;50.006;21.964;2024-02-28T09:49:31;13.65;;;7.82;;
56999;SDS011;42891;50.006;21.964;2024-02-28T09:53:31;18.50;;;8.43;;
56999;SDS011;42891;50.006;21.964;2024-02-28T09:57:32;14.80;;;8.73;;
56999;SDS011;42891;50.006;21.964;2024-02-28T10:01:36;18.05;;;9.00;;
56999;SDS011;42891;50.006;21.964;2024-02-28T10:05:42;17.15;;;8.07;;
56999;SDS011;42891;50.006;21.964;2024-02-28T10:09:42;16.73;;;8.50;;
56999;SDS011;42891;50.006;21.964;2024-02-28T10:13:42;16.37;;;9.07;;
56999;SDS011;42891;50.006;21.964;2024-02-28T10:17:43;18.75;;;8.68;;
56999;SDS011;42891;50.006;21.964;2024-02-28T10:21:43;16.98;;;8.30;;
56999;SDS011;42891;50.006;21.964;2024-02-28T10:25:47;17.67;;;8.95;;
56999;SDS011;42891;50.006;21.964;2024-02-28T10:29:47;21.88;;;9.63;;
56999;SDS011;42891;50.006;21.964;2024-02-28T10:33:48;17.42;;;9.38;;
56999;SDS011;42891;50.006;21.964;2024-02-28T10:37:48;17.05;;;10.50;;
56999;SDS011;42891;50.006;21.964;2024-02-28T10:41:50;18.55;;;10.38;;
56999;SDS011;42891;50.006;21.964;2024-02-28T10:45:52;17.35;;;9.02;;
56999;SDS011;42891;50.006;21.964;2024-02-28T10:49:56;15.38;;;9.98;;
56999;SDS011;42891;50.006;21.964;2024-02-28T10:54:07;21.52;;;12.45;;
56999;SDS011;42891;50.006;21.964;2024-02-28T10:58:11;30.33;;;13.98;;
56999;SDS011;42891;50.006;21.964;2024-02-28T11:02:11;24.00;;;13.98;;
56999;SDS011;42891;50.006;21.964;2024-02-28T11:06:16;27.98;;;15.05;;
56999;SDS011;42891;50.006;21.964;2024-02-28T11:10:18;19.30;;;10.60;;
56999;SDS011;42891;50.006;21.964;2024-02-28T11:14:18;17.27;;;10.25;;
56999;SDS011;42891;50.006;21.964;2024-02-28T11:18:24;17.92;;;9.93;;
56999;SDS011;42891;50.006;21.964;2024-02-28T11:22:27;16.90;;;9.83;;
56999;SDS011;42891;50.006;21.964;2024-02-28T11:26:28;18.77;;;10.13;;
56999;SDS011;42891;50.006;21.964;2024-02-28T11:30:28;18.70;;;9.32;;
56999;SDS011;42891;50.006;21.964;2024-02-28T11:34:28;19.50;;;9.63;;
56999;SDS011;42891;50.006;21.964;2024-02-28T11:38:29;18.87;;;10.10;;
56999;SDS011;42891;50.006;21.964;2024-02-28T11:42:29;21.20;;;10.10;;
56999;SDS011;42891;50.006;21.964;2024-02-28T11:46:29;22.00;;;12.03;;
56999;SDS011;42891;50.006;21.964;2024-02-28T11:50:30;22.55;;;11.65;;
56999;SDS011;42891;50.006;21.964;2024-02-28T11:54:30;18.58;;;9.13;;
56999;SDS011;42891;50.006;21.964;2024-02-28T11:58:30;20.88;;;9.82;;
56999;SDS011;42891;50.006;21.964;2024-02-28T12:02:31;24.87;;;12.33;;
56999;SDS011;42891;50.006;21.964;2024-02-28T12:06:35;31.35;;;12.85;;
56999;SDS011;42891;50.006;21.964;2024-02-28T12:10:36;25.90;;;12.05;;
56999;SDS011;42891;50.006;21.964;2024-02-28T12:14:36;23.13;;;11.90;;
56999;SDS011;42891;50.006;21.964;2024-02-28T12:18:40;46.88;;;14.70;;
56999;SDS011;42891;50.006;21.964;2024-02-28T12:22:40;77.35;;;31.50;;
56999;SDS011;42891;50.006;21.964;2024-02-28T12:26:41;34.60;;;16.77;;
56999;SDS011;42891;50.006;21.964;2024-02-28T12:30:41;74.83;;;30.23;;
56999;SDS011;42891;50.006;21.964;2024-02-28T12:34:45;26.92;;;13.23;;
56999;SDS011;42891;50.006;21.964;2024-02-28T12:38:45;19.20;;;12.50;;
56999;SDS011;42891;50.006;21.964;2024-02-28T12:42:45;22.20;;;10.70;;
56999;SDS011;42891;50.006;21.964;2024-02-28T12:46:45;22.57;;;8.80;;
56999;SDS011;42891;50.006;21.964;2024-02-28T12:50:46;30.00;;;13.23;;
56999;SDS011;42891;50.006;21.964;2024-02-28T12:54:46;30.60;;;14.68;;
56999;SDS011;42891;50.006;21.964;2024-02-28T12:58:47;28.63;;;13.43;;
56999;SDS011;42891;50.006;21.964;2024-02-28T13:02:47;44.63;;;19.93;;
56999;SDS011;42891;50.006;21.964;2024-02-28T13:06:47;27.30;;;12.93;;
56999;SDS011;42891;50.006;21.964;2024-02-28T13:10:47;22.02;;;10.85;;
56999;SDS011;42891;50.006;21.964;2024-02-28T13:14:48;22.83;;;10.70;;
56999;SDS011;42891;50.006;21.964;2024-02-28T13:18:48;29.73;;;13.13;;
56999;SDS011;42891;50.006;21.964;2024-02-28T13:22:48;26.07;;;11.27;;
56999;SDS011;42891;50.006;21.964;2024-02-28T13:26:49;21.20;;;10.50;;
56999;SDS011;42891;50.006;21.964;2024-02-28T13:30:49;21.93;;;10.67;;
56999;SDS011;42891;50.006;21.964;2024-02-28T13:34:50;18.63;;;9.70;;
56999;SDS011;42891;50.006;21.964;2024-02-28T13:38:50;16.40;;;9.30;;
56999;SDS011;42891;50.006;21.964;2024-02-28T13:42:50;17.58;;;10.55;;
56999;SDS011;42891;50.006;21.964;2024-02-28T13:46:51;26.27;;;13.43;;
56999;SDS011;42891;50.006;21.964;2024-02-28T13:50:52;21.58;;;10.25;;
56999;SDS011;42891;50.006;21.964;2024-02-28T13:54:53;22.13;;;10.75;;
56999;SDS011;42891;50.006;21.964;2024-02-28T13:58:53;22.03;;;11.27;;
56999;SDS011;42891;50.006;21.964;2024-02-28T14:02:53;22.17;;;10.87;;
56999;SDS011;42891;50.006;21.964;2024-02-28T14:06:53;21.63;;;10.87;;
56999;SDS011;42891;50.006;21.964;2024-02-28T14:10:54;20.33;;;11.67;;
56999;SDS011;42891;50.006;21.964;2024-02-28T14:14:54;18.25;;;11.13;;
56999;SDS011;42891;50.006;21.964;2024-02-28T14:18:54;22.10;;;11.60;;
56999;SDS011;42891;50.006;21.964;2024-02-28T14:22:55;21.60;;;11.40;;
56999;SDS011;42891;50.006;21.964;2024-02-28T14:26:56;23.58;;;11.82;;
56999;SDS011;42891;50.006;21.964;2024-02-28T14:30:57;28.57;;;14.90;;
56999;SDS011;42891;50.006;21.964;2024-02-28T14:34:57;35.70;;;17.70;;
56999;SDS011;42891;50.006;21.964;2024-02-28T14:38:57;26.50;;;14.53;;
56999;SDS011;42891;50.006;21.964;2024-02-28T14:42:57;28.43;;;13.90;;
56999;SDS011;42891;50.006;21.964;2024-02-28T14:46:58;22.02;;;12.85;;
56999;SDS011;42891;50.006;21.964;2024-02-28T14:50:58;21.03;;;11.93;;
56999;SDS011;42891;50.006;21.964;2024-02-28T14:54:59;19.58;;;11.63;;
56999;SDS011;42891;50.006;21.964;2024-02-28T14:58:59;18.63;;;10.77;;
56999;SDS011;42891;50.006;21.964;2024-02-28T15:02:59;20.55;;;12.07;;
56999;SDS011;42891;50.006;21.964;2024-02-28T15:07:00;28.13;;;14.20;;
56999;SDS011;42891;50.006;21.964;2024-02-28T15:11:00;22.40;;;13.30;;
56999;SDS011;42891;50.006;21.964;2024-02-28T15:15:00;25.67;;;13.85;;
56999;SDS011;42891;50.006;21.964;2024-02-28T15:19:07;34.45;;;16.05;;
56999;SDS011;42891;50.006;21.964;2024-02-28T15:23:07;27.57;;;14.70;;
56999;SDS011;42891;50.006;21.964;2024-02-28T15:27:07;26.40;;;13.93;;
56999;SDS011;42891;50.006;21.964;2024-02-28T15:31:08;32.10;;;14.55;;
56999;SDS011;42891;50.006;21.964;2024-02-28T15:35:09;32.58;;;15.55;;
56999;SDS011;42891;50.006;21.964;2024-02-28T15:39:10;46.20;;;23.63;;
56999;SDS011;42891;50.006;21.964;2024-02-28T15:43:11;43.33;;;24.17;;
56999;SDS011;42891;50.006;21.964;2024-02-28T15:47:11;48.70;;;21.85;;
56999;SDS011;42891;50.006;21.964;2024-02-28T15:51:11;49.75;;;23.13;;
56999;SDS011;42891;50.006;21.964;2024-02-28T15:55:12;48.17;;;23.50;;
56999;SDS011;42891;50.006;21.964;2024-02-28T15:59:12;48.65;;;24.17;;
56999;SDS011;42891;50.006;21.964;2024-02-28T16:03:13;45.60;;;25.05;;
56999;SDS011;42891;50.006;21.964;2024-02-28T16:07:13;48.45;;;27.02;;
56999;SDS011;42891;50.006;21.964;2024-02-28T16:11:15;48.42;;;22.40;;
56999;SDS011;42891;50.006;21.964;2024-02-28T16:15:15;42.55;;;21.30;;
56999;SDS011;42891;50.006;21.964;2024-02-28T16:19:16;38.77;;;20.60;;
56999;SDS011;42891;50.006;21.964;2024-02-28T16:23:16;82.37;;;41.33;;
56999;SDS011;42891;50.006;21.964;2024-02-28T16:27:16;85.53;;;45.90;;
56999;SDS011;42891;50.006;21.964;2024-02-28T16:31:17;71.77;;;39.80;;
56999;SDS011;42891;50.006;21.964;2024-02-28T16:35:17;46.90;;;28.40;;
56999;SDS011;42891;50.006;21.964;2024-02-28T16:39:17;42.45;;;22.23;;
56999;SDS011;42891;50.006;21.964;2024-02-28T16:43:19;43.13;;;25.58;;
56999;SDS011;42891;50.006;21.964;2024-02-28T16:47:19;45.90;;;26.92;;
56999;SDS011;42891;50.006;21.964;2024-02-28T16:51:20;57.00;;;26.93;;
56999;SDS011;42891;50.006;21.964;2024-02-28T16:55:20;49.15;;;26.65;;
56999;SDS011;42891;50.006;21.964;2024-02-28T16:59:20;54.37;;;30.27;;
56999;SDS011;42891;50.006;21.964;2024-02-28T17:03:21;54.25;;;27.80;;
56999;SDS011;42891;50.006;21.964;2024-02-28T17:07:22;53.28;;;27.52;;
56999;SDS011;42891;50.006;21.964;2024-02-28T17:11:22;53.43;;;26.97;;
56999;SDS011;42891;50.006;21.964;2024-02-28T17:15:22;54.75;;;29.48;;
56999;SDS011;42891;50.006;21.964;2024-02-28T17:19:23;52.03;;;25.27;;
56999;SDS011;42891;50.006;21.964;2024-02-28T17:23:23;43.90;;;25.60;;
56999;SDS011;42891;50.006;21.964;2024-02-28T17:27:25;77.55;;;43.78;;
56999;SDS011;42891;50.006;21.964;2024-02-28T17:31:25;131.87;;;72.47;;
56999;SDS011;42891;50.006;21.964;2024-02-28T17:35:26;139.60;;;75.03;;
56999;SDS011;42891;50.006;21.964;2024-02-28T17:39:26;125.10;;;68.03;;
56999;SDS011;42891;50.006;21.964;2024-02-28T17:43:26;111.80;;;60.60;;
56999;SDS011;42891;50.006;21.964;2024-02-28T17:47:27;104.18;;;57.78;;
56999;SDS011;42891;50.006;21.964;2024-02-28T17:51:29;134.45;;;72.68;;
56999;SDS011;42891;50.006;21.964;2024-02-28T17:55:30;115.97;;;64.15;;
56999;SDS011;42891;50.006;21.964;2024-02-28T17:59:31;128.40;;;67.05;;
56999;SDS011;42891;50.006;21.964;2024-02-28T18:03:32;139.18;;;74.25;;
56999;SDS011;42891;50.006;21.964;2024-02-28T18:07:32;135.40;;;70.80;;
56999;SDS011;42891;50.006;21.964;2024-02-28T18:11:33;152.77;;;81.63;;
56999;SDS011;42891;50.006;21.964;2024-02-28T18:15:33;185.88;;;96.93;;
56999;SDS011;42891;50.006;21.964;2024-02-28T18:19:33;183.03;;;99.80;;
56999;SDS011;42891;50.006;21.964;2024-02-28T18:23:34;180.27;;;100.33;;
56999;SDS011;42891;50.006;21.964;2024-02-28T18:27:34;154.37;;;85.97;;
56999;SDS011;42891;50.006;21.964;2024-02-28T18:31:35;125.22;;;67.72;;
56999;SDS011;42891;50.006;21.964;2024-02-28T18:35:36;127.80;;;63.50;;
56999;SDS011;42891;50.006;21.964;2024-02-28T18:39:37;107.38;;;54.95;;
56999;SDS011;42891;50.006;21.964;2024-02-28T18:43:38;101.15;;;49.65;;
56999;SDS011;42891;50.006;21.964;2024-02-28T18:47:39;88.40;;;48.15;;
56999;SDS011;42891;50.006;21.964;2024-02-28T18:51:39;92.63;;;45.60;;
56999;SDS011;42891;50.006;21.964;2024-02-28T18:55:40;94.05;;;46.97;;
56999;SDS011;42891;50.006;21.964;2024-02-28T18:59:41;97.68;;;48.58;;
56999;SDS011;42891;50.006;21.964;2024-02-28T19:03:41;144.57;;;72.10;;
56999;SDS011;42891;50.006;21.964;2024-02-28T19:07:41;218.63;;;111.75;;
56999;SDS011;42891;50.006;21.964;2024-02-28T19:11:42;246.20;;;124.15;;
56999;SDS011;42891;50.006;21.964;2024-02-28T19:15:43;259.98;;;121.55;;
56999;SDS011;42891;50.006;21.964;2024-02-28T19:19:43;169.60;;;77.40;;
56999;SDS011;42891;50.006;21.964;2024-02-28T19:23:43;149.30;;;70.32;;
56999;SDS011;42891;50.006;21.964;2024-02-28T19:27:45;190.82;;;84.63;;
56999;SDS011;42891;50.006;21.964;2024-02-28T19:31:45;154.53;;;73.83;;
56999;SDS011;42891;50.006;21.964;2024-02-28T19:35:45;191.20;;;88.93;;
56999;SDS011;42891;50.006;21.964;2024-02-28T19:39:46;147.57;;;76.28;;
56999;SDS011;42891;50.006;21.964;2024-02-28T19:43:46;138.50;;;67.43;;
56999;SDS011;42891;50.006;21.964;2024-02-28T19:47:46;137.70;;;68.60;;
56999;SDS011;42891;50.006;21.964;2024-02-28T19:51:47;141.85;;;72.72;;
56999;SDS011;42891;50.006;21.964;2024-02-28T19:55:47;206.45;;;103.45;;
56999;SDS011;42891;50.006;21.964;2024-02-28T19:59:47;200.50;;;106.47;;
56999;SDS011;42891;50.006;21.964;2024-02-28T20:03:48;173.30;;;94.00;;
56999;SDS011;42891;50.006;21.964;2024-02-28T20:07:49;183.63;;;94.35;;
56999;SDS011;42891;50.006;21.964;2024-02-28T20:11:49;167.07;;;86.93;;
56999;SDS011;42891;50.006;21.964;2024-02-28T20:15:49;159.47;;;84.50;;
56999;SDS011;42891;50.006;21.964;2024-02-28T20:19:49;144.73;;;75.27;;
56999;SDS011;42891;50.006;21.964;2024-02-28T20:23:50;150.00;;;80.97;;
56999;SDS011;42891;50.006;21.964;2024-02-28T20:27:51;141.90;;;75.15;;
56999;SDS011;42891;50.006;21.964;2024-02-28T20:31:52;150.68;;;76.90;;
56999;SDS011;42891;50.006;21.964;2024-02-28T20:35:52;151.25;;;77.35;;
56999;SDS011;42891;50.006;21.964;2024-02-28T20:39:53;157.35;;;80.97;;
56999;SDS011;42891;50.006;21.964;2024-02-28T20:43:53;162.07;;;79.35;;
56999;SDS011;42891;50.006;21.964;2024-02-28T20:47:54;170.27;;;84.88;;
56999;SDS011;42891;50.006;21.964;2024-02-28T20:51:56;155.98;;;78.22;;
56999;SDS011;42891;50.006;21.964;2024-02-28T20:55:59;153.05;;;78.45;;
56999;SDS011;42891;50.006;21.964;2024-02-28T20:59:59;151.30;;;77.67;;
56999;SDS011;42891;50.006;21.964;2024-02-28T21:04:01;134.20;;;71.30;;
56999;SDS011;42891;50.006;21.964;2024-02-28T21:08:01;150.35;;;75.07;;
56999;SDS011;42891;50.006;21.964;2024-02-28T21:12:02;202.75;;;97.15;;
56999;SDS011;42891;50.006;21.964;2024-02-28T21:16:03;175.60;;;89.13;;
56999;SDS011;42891;50.006;21.964;2024-02-28T21:20:04;167.95;;;87.47;;
56999;SDS011;42891;50.006;21.964;2024-02-28T21:24:05;173.40;;;91.32;;
56999;SDS011;42891;50.006;21.964;2024-02-28T21:28:06;166.93;;;83.15;;
56999;SDS011;42891;50.006;21.964;2024-02-28T21:32:06;149.43;;;80.53;;
56999;SDS011;42891;50.006;21.964;2024-02-28T21:36:07;173.23;;;83.93;;
56999;SDS011;42891;50.006;21.964;2024-02-28T21:40:07;146.70;;;77.70;;
56999;SDS011;42891;50.006;21.964;2024-02-28T21:44:08;153.27;;;73.50;;
56999;SDS011;42891;50.006;21.964;2024-02-28T21:48:08;179.43;;;85.82;;
56999;SDS011;42891;50.006;21.964;2024-02-28T21:52:09;168.60;;;84.20;;
56999;SDS011;42891;50.006;21.964;2024-02-28T21:56:10;168.60;;;82.15;;
56999;SDS011;42891;50.006;21.964;2024-02-28T22:00:10;161.23;;;81.93;;
56999;SDS011;42891;50.006;21.964;2024-02-28T22:04:12;166.38;;;79.75;;
56999;SDS011;42891;50.006;21.964;2024-02-28T22:08:12;159.60;;;78.73;;
56999;SDS011;42891;50.006;21.964;2024-02-28T22:12:13;173.57;;;83.20;;
56999;SDS011;42891;50.006;21.964;2024-02-28T22:16:13;195.52;;;88.80;;
56999;SDS011;42891;50.006;21.964;2024-02-28T22:20:13;247.53;;;112.60;;
56999;SDS011;42891;50.006;21.964;2024-02-28T22:24:14;221.88;;;104.05;;
56999;SDS011;42891;50.006;21.964;2024-02-28T22:28:14;182.73;;;87.00;;
56999;SDS011;42891;50.006;21.964;2024-02-28T22:32:14;168.57;;;83.67;;
56999;SDS011;42891;50.006;21.964;2024-02-28T22:36:15;263.07;;;121.07;;
56999;SDS011;42891;50.006;21.964;2024-02-28T22:40:15;302.23;;;135.20;;
56999;SDS011;42891;50.006;21.964;2024-02-28T22:44:16;185.18;;;88.13;;
56999;SDS011;42891;50.006;21.964;2024-02-28T22:48:16;212.97;;;98.93;;
56999;SDS011;42891;50.006;21.964;2024-02-28T22:52:16;191.75;;;94.50;;
56999;SDS011;42891;50.006;21.964;2024-02-28T22:56:17;166.02;;;82.20;;
56999;SDS011;42891;50.006;21.964;2024-02-28T23:00:17;124.03;;;64.80;;
56999;SDS011;42891;50.006;21.964;2024-02-28T23:04:32;138.68;;;71.57;;